Route Details

Aircraft Information
Group: European Fleet
Types: A30F, A31F, B738
Route Data
Distance: 347nm
Duration: 1h 05m
Origin METAR: EDDK 010450Z AUTO 27012KT CAVOK 06/02 Q1020 NOSIG
Dest. METAR: EKCH 010450Z AUTO 26018KT 9999 BKN022/// 04/01 Q1000 TEMPO 27020G32KT
Freight Data
(for Feb 1, 2023)
Load Factor:
92%
Manifested Cargo: 88,771lbs
Financial History
Total Freight: 667,373lbs
Average Load: 0lbs/flt
Fuel Used: 134,478lbs
Avg. Fuel Used: 0lbs/flt
Fuel Expense: $63,913
Avg. Fuel Expense: $0
Avg. Fuel Cost: $0/lbs
Total Gross Income: $1,484,914
Pilot Pay: $2,599
Total Expenses: $272,873
Total Revenue: $1,143,405
Average Revenue: $0

Capitol Logistics 583




EDDK
Cologne Bonn Airport
Cologne, DE
EKCH
Copenhagen Kastrup Airport
Copenhagen, DK